Latest Weather Observations for North Head

IDN60801

Issued at 9:33 pm EST Thursday 25 August 2016 (issued every 30 minutes, with the page automatically refreshed every 10 minutes)

About weather observations | Map of weather stations | Latest weather observations for NSW | Other Formats
Station Details ID: 066197 Name: NORTH HEAD Lat: -33.82 Lon: 151.30 Height: 90.0 m
Data from the previous 72 hours. | See also: Recent months for locations in New South Wales
Date/Time
EST
Temp
°C
App
Temp
°C
Dew
Point
°C
Rel
Hum
%
Delta-T
°C
Wind Press
QNH
hPa
Press
MSL
hPa
Rain since
9am
mm
Dir  Spd
km/h
Gust
km/h
Spd
kts
Gust
kts
25/09:30pm - - - - - W 17 24 9 13 - - -
25/09:00pm - - - - - WNW 17 24 9 13 - - -
25/08:30pm - - - - - WNW 7 13 4 7 - - -
25/08:00pm - - - - - NW 7 9 4 5 - - -
25/07:30pm - - - - - W 4 6 2 3 - - -
25/07:00pm - - - - - WSW 6 7 3 4 - - -
25/06:30pm - - - - - SW 6 11 3 6 - - -
25/06:00pm - - - - - SW 7 11 4 6 - - -
25/05:30pm - - - - - SSW 7 11 4 6 - - -
25/05:00pm - - - - - SSE 9 15 5 8 - - -
25/04:30pm - - - - - SSE 13 19 7 10 - - -
25/04:00pm - - - - - S 15 22 8 12 - - -
25/03:30pm - - - - - S 15 24 8 13 - - -
25/03:00pm - - - - - S 15 24 8 13 - - -
25/02:30pm - - - - - S 19 30 10 16 - - -
25/02:00pm - - - - - S 13 24 7 13 - - -
25/01:30pm - - - - - SW 13 22 7 12 - - -
25/01:00pm - - - - - WSW 20 30 11 16 - - -
25/12:30pm - - - - - SW 19 33 10 18 - - -
25/12:00pm - - - - - SW 19 33 10 18 - - -
25/11:30am - - - - - SW 24 43 13 23 - - -
25/11:00am - - - - - WSW 22 35 12 19 - - -
25/10:30am - - - - - WSW 22 33 12 18 - - -
25/10:00am - - - - - WSW 22 33 12 18 - - -
25/09:30am - - - - - WSW 22 39 12 21 - - -
25/09:00am - - - - - WSW 24 37 13 20 - - -
25/08:30am - - - - - WSW 28 43 15 23 - - -
25/08:00am - - - - - W 22 33 12 18 - - -
25/07:30am - - - - - W 22 35 12 19 - - -
25/07:00am - - - - - W 24 39 13 21 - - -
25/06:30am - - - - - WSW 20 35 11 19 - - -
25/06:00am - - - - - WSW 24 37 13 20 - - -
25/05:30am - - - - - W 22 33 12 18 - - -
25/05:00am - - - - - WSW 22 37 12 20 - - -
25/04:30am - - - - - WSW 22 35 12 19 - - -
25/04:00am - - - - - WSW 22 41 12 22 - - -
25/03:30am - - - - - WSW 22 35 12 19 - - -
25/03:00am - - - - - WSW 22 33 12 18 - - -
25/02:30am - - - - - W 20 32 11 17 - - -
25/02:00am - - - - - W 19 26 10 14 - - -
25/01:30am - - - - - W 19 28 10 15 - - -
25/01:00am - - - - - SW 19 28 10 15 - - -
25/12:30am - - - - - SW 22 39 12 21 - - -
25/12:00am - - - - - WSW 22 33 12 18 - - -
 
Date/Time
EST
Temp
°C
App
Temp
°C
Dew
Point
°C
Rel
Hum
%
Delta-T
°C
Wind Press
QNH
hPa
Press
MSL
hPa
Rain since
9am
mm
Dir  Spd
km/h
Gust
km/h
Spd
kts
Gust
kts
24/11:30pm - - - - - WSW 22 30 12 16 - - -
24/11:00pm - - - - - W 20 37 11 20 - - -
24/10:30pm - - - - - WSW 19 32 10 17 - - -
24/10:00pm - - - - - SW 22 35 12 19 - - -
24/09:30pm - - - - - SSW 26 39 14 21 - - -
24/09:00pm - - - - - S 35 54 19 29 - - -
24/08:30pm - - - - - S 41 61 22 33 - - -
24/08:19pm - - - - - S 28 48 15 26 - - -
24/08:00pm - - - - - S 32 50 17 27 - - -
24/07:37pm - - - - - SSE 35 54 19 29 - - -
24/07:30pm - - - - - SSE 30 43 16 23 - - -
24/07:00pm - - - - - S 17 24 9 13 - - -
24/06:30pm - - - - - SSE 11 20 6 11 - - -
24/06:00pm - - - - - ESE 26 35 14 19 - - -
24/05:30pm - - - - - ESE 30 37 16 20 - - -
24/05:00pm - - - - - E 24 35 13 19 - - -
24/04:30pm - - - - - E 26 39 14 21 - - -
24/04:00pm - - - - - ESE 28 37 15 20 - - -
24/03:30pm - - - - - E 19 35 10 19 - - -
24/03:00pm - - - - - E 13 24 7 13 - - -
24/02:30pm - - - - - ENE 17 30 9 16 - - -
24/02:00pm - - - - - SE 13 30 7 16 - - -
24/01:30pm - - - - - SSE 17 32 9 17 - - -
24/01:00pm - - - - - SE 17 28 9 15 - - -
24/12:30pm - - - - - ESE 26 37 14 20 - - -
24/12:00pm - - - - - SE 22 37 12 20 - - -
24/11:30am - - - - - ESE 22 33 12 18 - - -
24/11:00am - - - - - SE 13 22 7 12 - - -
24/10:30am - - - - - ESE 11 15 6 8 - - -
24/10:00am - - - - - ESE 20 28 11 15 - - -
24/09:30am - - - - - ESE 20 32 11 17 - - -
24/09:00am - - - - - SE 17 30 9 16 - - -
24/08:30am - - - - - SE 26 43 14 23 - - -
24/08:00am - - - - - SSE 24 35 13 19 - - -
24/07:30am - - - - - SSE 22 32 12 17 - - -
24/07:00am - - - - - SSE 26 37 14 20 - - -
24/06:30am - - - - - SE 22 33 12 18 - - -
24/06:00am - - - - - SSE 22 35 12 19 - - -
24/05:30am - - - - - SSE 22 33 12 18 - - -
24/05:00am - - - - - SSE 22 32 12 17 - - -
24/04:30am - - - - - SSE 24 35 13 19 - - -
24/04:00am - - - - - SSE 22 37 12 20 - - -
24/03:30am - - - - - SSE 20 33 11 18 - - -
24/03:00am - - - - - S 22 33 12 18 - - -
24/02:30am - - - - - S 22 30 12 16 - - -
24/02:00am - - - - - S 24 35 13 19 - - -
24/01:30am - - - - - S 19 32 10 17 - - -
24/01:00am - - - - - S 22 35 12 19 - - -
24/12:30am - - - - - S 22 33 12 18 - - -
24/12:00am - - - - - S 13 22 7 12 - - -
 
Date/Time
EST
Temp
°C
App
Temp
°C
Dew
Point
°C
Rel
Hum
%
Delta-T
°C
Wind Press
QNH
hPa
Press
MSL
hPa
Rain since
9am
mm
Dir  Spd
km/h
Gust
km/h
Spd
kts
Gust
kts
23/11:30pm - - - - - S 15 22 8 12 - - -
23/11:00pm - - - - - SSW 13 22 7 12 - - -
23/10:30pm - - - - - SW 13 22 7 12 - - -
23/10:00pm - - - - - SSW 11 17 6 9 - - -
23/09:30pm - - - - - S 17 24 9 13 - - -
23/09:00pm - - - - - S 20 28 11 15 - - -
23/08:30pm - - - - - SSW 11 19 6 10 - - -
23/08:00pm - - - - - SW 11 17 6 9 - - -
23/07:30pm - - - - - SSW 11 19 6 10 - - -
23/07:00pm - - - - - SW 15 20 8 11 - - -
23/06:30pm - - - - - SSW 15 24 8 13 - - -
23/06:00pm - - - - - SSW 20 35 11 19 - - -
23/05:30pm - - - - - SSW 15 24 8 13 - - -
23/05:00pm - - - - - SSW 15 26 8 14 - - -
23/04:30pm - - - - - S 15 28 8 15 - - -
23/04:00pm - - - - - SSW 17 30 9 16 - - -
23/03:30pm - - - - - S 13 26 7 14 - - -
23/03:00pm - - - - - S 20 35 11 19 - - -
23/02:30pm - - - - - S 19 32 10 17 - - -
23/02:00pm - - - - - S 19 32 10 17 - - -
23/01:30pm - - - - - SSW 19 32 10 17 - - -
23/01:00pm - - - - - SSW 19 28 10 15 - - -
23/12:30pm - - - - - SSW 19 32 10 17 - - -
23/12:00pm - - - - - SW 20 35 11 19 - - -
23/11:30am - - - - - SW 19 35 10 19 - - -
23/11:00am - - - - - SW 19 26 10 14 - - -
23/10:30am - - - - - WSW 17 26 9 14 - - -
23/10:00am - - - - - WSW 19 28 10 15 - - -
23/09:30am - - - - - WSW 15 22 8 12 - - -
23/09:00am - - - - - W 17 26 9 14 - - -
23/08:30am - - - - - WSW 17 24 9 13 - - -
23/08:00am - - - - - W 15 24 8 13 - - -
23/07:30am - - - - - W 15 22 8 12 - - -
23/07:00am - - - - - W 17 22 9 12 - - -
23/06:30am - - - - - W 17 24 9 13 - - -
23/06:00am - - - - - W 15 24 8 13 - - -
23/05:30am - - - - - W 17 24 9 13 - - -
23/05:00am - - - - - W 15 20 8 11 - - -
23/04:30am - - - - - W 17 22 9 12 - - -
23/04:00am - - - - - WNW 11 17 6 9 - - -
23/03:30am - - - - - WNW 11 17 6 9 - - -
23/03:00am - - - - - NW 13 17 7 9 - - -
23/02:30am - - - - - WNW 15 24 8 13 - - -
23/02:00am - - - - - W 11 17 6 9 - - -
23/01:30am - - - - - WNW 9 13 5 7 - - -
23/01:00am - - - - - WNW 9 13 5 7 - - -
23/12:30am - - - - - WNW 11 17 6 9 - - -
23/12:00am - - - - - W 9 15 5 8 - - -
 
Date/Time
EST
Temp
°C
App
Temp
°C
Dew
Point
°C
Rel
Hum
%
Delta-T
°C
Wind Press
QNH
hPa
Press
MSL
hPa
Rain since
9am
mm
Dir  Spd
km/h
Gust
km/h
Spd
kts
Gust
kts
22/11:30pm - - - - - W 11 15 6 8 - - -
22/11:00pm - - - - - W 15 20 8 11 - - -
22/10:30pm - - - - - W 13 22 7 12 - - -
22/10:00pm - - - - - W 13 19 7 10 - - -

Other Formats:

Comma delimited format used in spreadsheet applications
http://www.bom.gov.au/fwo/IDN60801/IDN60801.95768.axf

JavaScript Object Notation format (JSON) in row-major order
http://www.bom.gov.au/fwo/IDN60801/IDN60801.95768.json